Terminal Aerodrome Forecast
Issued by NWS

Home | Current Version | Previous Version | Text Only | Print | Product List | Glossary On
Versions: 1 2 3 4 5 6 7 8 9 10 11 12 13 14
000
FTUS46 KSEW 162300
TAFOLM
TAF
KOLM 162320Z 1700/1724 22008KT P6SM SCT040 BKN120
     FM171000 VRB04KT P6SM OVC015
      TEMPO 1710/1714 00000KT 3SM BR SCT008 OVC015
     FM171700 VRB04KT P6SM VCSH SCT015 BKN080 BKN120
     FM171900 35006KT P6SM VCSH SCT015 BKN050 OVC080=

USA.gov is the U.S. government's official web portal to all federal, state and local government web resources and services.